createdAt,value
2018-12-18T00:01:46.897Z,30.30
2018-12-18T00:04:18.263Z,30.20
2018-12-18T00:06:49.568Z,30.30
2018-12-18T00:09:19.003Z,30.00
2018-12-18T00:11:48.321Z,30.20
2018-12-18T00:14:17.703Z,30.00
2018-12-18T00:16:46.990Z,30.00
2018-12-18T00:19:16.226Z,30.10
2018-12-18T00:21:45.509Z,30.00
2018-12-18T00:24:14.874Z,30.00
2018-12-18T00:26:44.203Z,30.00
2018-12-18T00:29:13.556Z,30.10
2018-12-18T00:31:42.879Z,30.00
2018-12-18T00:34:12.232Z,30.00
2018-12-18T00:36:41.556Z,30.00
2018-12-18T00:39:14.687Z,29.90
2018-12-18T00:41:44.103Z,30.00
2018-12-18T00:44:13.392Z,29.90
2018-12-18T00:46:42.766Z,30.00
2018-12-18T00:49:12.198Z,29.90
2018-12-18T00:51:41.640Z,29.70
2018-12-18T00:54:10.984Z,29.80
2018-12-18T00:56:40.412Z,29.70
2018-12-18T00:59:09.704Z,29.70
2018-12-18T01:01:39.055Z,29.80
2018-12-18T01:04:08.370Z,29.70
2018-12-18T01:06:38.225Z,29.80
2018-12-18T01:09:07.607Z,29.80
2018-12-18T01:11:38.266Z,29.70
2018-12-18T01:14:07.625Z,29.80
2018-12-18T01:16:36.895Z,29.80
2018-12-18T01:19:06.250Z,29.70
2018-12-18T01:21:35.601Z,29.80
2018-12-18T01:24:05.010Z,29.80
2018-12-18T01:26:34.308Z,29.80
2018-12-18T01:29:03.779Z,29.80
2018-12-18T01:31:33.084Z,29.80
2018-12-18T01:34:02.460Z,29.80
2018-12-18T01:36:32.862Z,29.80
2018-12-18T01:39:02.368Z,29.70
2018-12-18T01:41:33.750Z,29.80
2018-12-18T01:44:03.136Z,29.70
2018-12-18T01:46:32.647Z,29.70
2018-12-18T01:49:01.933Z,29.30
2018-12-18T01:51:31.360Z,29.70
2018-12-18T01:54:00.687Z,29.70
2018-12-18T01:56:29.952Z,29.70
2018-12-18T01:58:59.205Z,29.70
2018-12-18T02:01:28.622Z,29.60
2018-12-18T02:03:57.898Z,29.70
2018-12-18T02:06:27.166Z,29.70
2018-12-18T02:08:56.587Z,29.60
2018-12-18T02:11:25.948Z,29.70
2018-12-18T02:13:55.221Z,29.60
2018-12-18T02:16:24.489Z,29.60
2018-12-18T02:18:53.752Z,29.60
2018-12-18T02:21:23.090Z,29.60
2018-12-18T02:23:52.319Z,29.50
2018-12-18T02:26:21.691Z,29.60
2018-12-18T02:28:50.990Z,29.50
2018-12-18T02:31:20.422Z,29.50
2018-12-18T02:33:49.751Z,29.60
2018-12-18T02:36:19.074Z,29.60
2018-12-18T02:38:48.437Z,29.60
2018-12-18T02:41:17.701Z,29.60
2018-12-18T02:43:47.015Z,29.50
2018-12-18T02:46:16.383Z,29.50
2018-12-18T02:48:45.706Z,29.50
2018-12-18T02:51:15.216Z,29.50
2018-12-18T02:53:44.528Z,29.60
2018-12-18T02:56:13.848Z,29.50
2018-12-18T02:58:43.183Z,29.50
2018-12-18T03:01:12.450Z,29.50
2018-12-18T03:03:41.768Z,29.50
2018-12-18T03:06:11.070Z,29.50
2018-12-18T03:08:40.383Z,29.50
2018-12-18T03:11:11.808Z,29.40
2018-12-18T03:13:41.254Z,29.50
2018-12-18T03:16:10.580Z,29.50
2018-12-18T03:18:39.990Z,29.50
2018-12-18T03:21:09.336Z,29.50
2018-12-18T03:23:38.786Z,29.50
2018-12-18T03:26:08.239Z,29.40
2018-12-18T03:28:37.611Z,29.50
2018-12-18T03:31:06.952Z,29.40
2018-12-18T03:33:36.267Z,29.40
2018-12-18T03:36:05.808Z,29.40
2018-12-18T03:38:35.358Z,29.40
2018-12-18T03:41:04.716Z,29.40
2018-12-18T03:43:34.076Z,29.40
2018-12-18T03:46:03.365Z,29.40
2018-12-18T03:48:32.735Z,29.40
2018-12-18T03:51:02.146Z,29.40
2018-12-18T03:53:31.417Z,29.40
2018-12-18T03:56:00.772Z,29.50
2018-12-18T03:58:30.240Z,29.40
2018-12-18T04:00:59.554Z,29.50
2018-12-18T04:03:30.975Z,29.40
2018-12-18T04:06:00.397Z,29.40
2018-12-18T04:08:29.888Z,29.40
2018-12-18T04:10:59.184Z,29.40
2018-12-18T04:13:28.612Z,29.40
2018-12-18T04:15:57.913Z,29.30
2018-12-18T04:18:27.271Z,29.40
2018-12-18T04:20:56.595Z,29.40
2018-12-18T04:23:26.673Z,29.40
2018-12-18T04:25:56.382Z,29.30
2018-12-18T04:28:25.653Z,29.40
2018-12-18T04:30:55.060Z,29.40
2018-12-18T04:33:24.505Z,29.30
2018-12-18T04:35:56.556Z,29.30
2018-12-18T04:38:26.318Z,29.30
2018-12-18T04:40:55.609Z,29.50
2018-12-18T04:43:25.282Z,29.40
2018-12-18T04:45:54.696Z,29.40
2018-12-18T04:48:24.052Z,29.40
2018-12-18T04:50:53.349Z,29.30
2018-12-18T04:53:22.730Z,29.40
2018-12-18T04:55:52.049Z,29.40
2018-12-18T04:58:21.375Z,29.30
2018-12-18T05:00:50.654Z,29.40
2018-12-18T05:03:19.979Z,29.90
2018-12-18T05:05:49.945Z,29.30
2018-12-18T05:08:19.317Z,29.40
2018-12-18T05:10:55.303Z,29.30
2018-12-18T05:13:24.612Z,29.40
2018-12-18T05:15:53.823Z,29.40
2018-12-18T05:18:23.077Z,29.30
2018-12-18T05:20:52.453Z,29.30
2018-12-18T05:23:21.735Z,29.40
2018-12-18T05:25:51.026Z,29.40
2018-12-18T05:28:20.395Z,29.30
2018-12-18T05:30:49.795Z,29.40
2018-12-18T05:33:19.143Z,29.40
2018-12-18T05:35:48.479Z,29.30
2018-12-18T05:38:17.890Z,29.30
2018-12-18T05:40:47.252Z,29.30
2018-12-18T05:43:16.579Z,29.30
2018-12-18T05:45:45.932Z,29.30
2018-12-18T05:48:15.256Z,29.30
2018-12-18T05:50:44.616Z,29.30
2018-12-18T05:53:13.919Z,29.30
2018-12-18T05:55:43.249Z,29.30
2018-12-18T05:58:12.461Z,29.30
2018-12-18T06:00:41.908Z,29.30
2018-12-18T06:03:11.185Z,29.30
2018-12-18T06:05:40.487Z,29.30
2018-12-18T06:08:09.812Z,29.20
2018-12-18T06:10:39.164Z,29.40
2018-12-18T06:13:08.648Z,29.30
2018-12-18T06:15:38.892Z,29.50
2018-12-18T06:18:08.271Z,29.30
2018-12-18T06:20:37.708Z,29.30
2018-12-18T06:23:07.064Z,29.20
2018-12-18T06:25:36.355Z,29.20
2018-12-18T06:28:06.202Z,29.30
2018-12-18T06:30:43.381Z,29.10
2018-12-18T06:33:16.223Z,29.20
2018-12-18T06:35:45.519Z,29.20
2018-12-18T06:40:55.949Z,29.60
2018-12-18T06:43:25.246Z,30.00
2018-12-18T06:45:54.588Z,30.00
2018-12-18T06:48:23.865Z,30.10
2018-12-18T06:50:53.395Z,30.30
2018-12-18T06:53:22.653Z,30.80
2018-12-18T06:55:51.981Z,30.90
2018-12-18T06:58:21.735Z,30.90
2018-12-18T07:00:51.104Z,30.70
2018-12-18T07:03:22.247Z,31.30
2018-12-18T07:05:52.247Z,31.30
2018-12-18T07:08:27.014Z,31.00
2018-12-18T07:10:56.508Z,31.30
2018-12-18T07:13:27.119Z,31.30
2018-12-18T07:15:58.186Z,31.40
2018-12-18T07:18:30.656Z,31.50
2018-12-18T07:21:01.385Z,31.50
2018-12-18T07:23:39.612Z,31.60
2018-12-18T07:26:14.532Z,32.00
2018-12-18T07:29:05.923Z,32.10
2018-12-18T07:32:13.611Z,32.90
2018-12-18T07:34:44.289Z,33.60
2018-12-18T07:37:15.016Z,34.00
2018-12-18T07:39:45.238Z,34.30
2018-12-18T07:45:00.597Z,34.40
2018-12-18T07:47:30.110Z,34.40
2018-12-18T07:49:59.814Z,34.10
2018-12-18T07:52:40.826Z,33.90
2018-12-18T07:55:23.132Z,33.80
2018-12-18T08:03:56.392Z,33.40
2018-12-18T08:07:02.999Z,33.40
2018-12-18T08:12:30.942Z,33.10
2018-12-18T08:17:59.354Z,33.30
2018-12-18T08:20:28.634Z,34.10
2018-12-18T08:22:57.928Z,35.40
2018-12-18T08:25:27.508Z,35.00
2018-12-18T08:27:56.941Z,35.60
2018-12-18T08:30:26.758Z,36.00
2018-12-18T08:32:56.324Z,36.80
2018-12-18T08:35:28.165Z,37.50
2018-12-18T08:37:57.533Z,37.80
2018-12-18T08:40:27.283Z,38.50
2018-12-18T08:42:56.979Z,38.70
2018-12-18T08:45:26.540Z,38.50
2018-12-18T08:47:57.624Z,38.80
2018-12-18T08:50:36.245Z,39.30
2018-12-18T08:53:07.232Z,39.90
2018-12-18T08:55:39.026Z,40.30
2018-12-18T08:58:09.816Z,40.10
2018-12-18T09:00:46.914Z,41.00
2018-12-18T09:05:59.706Z,41.20
2018-12-18T09:08:32.853Z,41.60
2018-12-18T09:11:06.014Z,41.90
2018-12-18T09:13:35.741Z,41.90
2018-12-18T09:18:49.374Z,35.50
2018-12-18T09:21:20.733Z,39.30
2018-12-18T09:23:52.451Z,43.50
2018-12-18T09:26:22.029Z,43.10
2018-12-18T09:28:51.504Z,44.00
2018-12-18T09:31:21.588Z,44.00
2018-12-18T09:33:51.186Z,43.90
2018-12-18T09:36:20.487Z,43.60
2018-12-18T09:38:55.205Z,43.80
2018-12-18T09:44:11.139Z,43.90
2018-12-18T09:46:40.566Z,44.00
2018-12-18T09:49:17.592Z,43.60
2018-12-18T09:51:47.219Z,43.60
2018-12-18T09:54:17.027Z,43.80
2018-12-18T09:56:52.050Z,44.50
2018-12-18T09:59:25.414Z,44.10
2018-12-18T10:01:55.321Z,44.40
2018-12-18T10:04:26.595Z,45.30
2018-12-18T10:07:08.418Z,45.40
2018-12-18T10:15:52.349Z,44.80
2018-12-18T10:18:25.848Z,42.90
2018-12-18T10:20:57.091Z,42.70
2018-12-18T10:23:27.528Z,41.90
2018-12-18T10:25:56.900Z,42.50
2018-12-18T10:28:27.828Z,42.80
2018-12-18T10:30:57.412Z,43.10
2018-12-18T10:39:42.959Z,44.90
2018-12-18T10:42:12.723Z,44.80
2018-12-18T10:44:42.887Z,44.90
2018-12-18T10:47:12.958Z,45.50
2018-12-18T10:49:42.800Z,45.50
2018-12-18T10:52:12.456Z,46.20
2018-12-18T10:54:42.714Z,45.70
2018-12-18T10:57:13.369Z,46.10
2018-12-18T10:59:43.601Z,46.40
2018-12-18T11:02:14.274Z,47.20
2018-12-18T11:04:44.346Z,47.20
2018-12-18T11:07:15.590Z,38.20
2018-12-18T11:09:45.778Z,39.70
2018-12-18T11:12:20.506Z,39.20
2018-12-18T11:14:51.072Z,36.80
2018-12-18T11:17:20.625Z,36.60
2018-12-18T11:19:51.577Z,40.90
2018-12-18T11:22:21.449Z,42.40
2018-12-18T11:24:53.211Z,50.10
2018-12-18T11:27:23.484Z,43.70
2018-12-18T11:29:53.867Z,43.80
2018-12-18T11:32:23.941Z,45.40
2018-12-18T11:34:53.563Z,45.40
2018-12-18T11:37:24.963Z,45.00
2018-12-18T11:39:54.929Z,48.60
2018-12-18T11:42:25.564Z,47.10
2018-12-18T11:44:56.232Z,45.00
2018-12-18T11:47:27.719Z,45.00
2018-12-18T11:49:57.764Z,46.10
2018-12-18T11:52:28.349Z,42.80
2018-12-18T11:54:57.968Z,45.70
2018-12-18T11:57:27.611Z,47.20
2018-12-18T11:59:57.399Z,48.90
2018-12-18T12:02:27.986Z,50.20
2018-12-18T12:05:00.745Z,46.20
2018-12-18T12:07:30.716Z,45.40
2018-12-18T12:10:01.252Z,43.00
2018-12-18T12:12:31.242Z,44.00
2018-12-18T12:15:01.323Z,42.30
2018-12-18T12:17:31.867Z,41.00
2018-12-18T12:20:01.627Z,40.30
2018-12-18T12:22:35.276Z,41.10
2018-12-18T12:25:07.766Z,45.10
2018-12-18T12:27:43.598Z,43.70
2018-12-18T12:30:13.819Z,43.10
2018-12-18T12:32:43.820Z,43.20
2018-12-18T12:35:15.251Z,43.20
2018-12-18T12:37:45.518Z,42.80
2018-12-18T12:40:21.416Z,41.70
2018-12-18T12:42:53.184Z,45.80
2018-12-18T12:45:23.144Z,49.50
2018-12-18T12:47:56.745Z,50.20
2018-12-18T12:50:26.640Z,49.90
2018-12-18T12:53:01.132Z,49.60
2018-12-18T12:55:31.623Z,49.50
2018-12-18T12:58:01.237Z,49.60
2018-12-18T13:00:32.224Z,50.10
2018-12-18T13:03:05.762Z,49.50
2018-12-18T13:05:37.865Z,49.20
2018-12-18T13:08:08.529Z,48.60
2018-12-18T13:10:38.626Z,48.30
2018-12-18T13:13:08.624Z,48.30
2018-12-18T13:18:28.890Z,46.90
2018-12-18T13:20:58.592Z,47.00
2018-12-18T13:23:28.010Z,47.10
2018-12-18T13:25:57.575Z,47.00
2018-12-18T13:28:27.805Z,46.50
2018-12-18T13:30:58.250Z,46.20
2018-12-18T13:33:31.347Z,45.50
2018-12-18T13:42:36.842Z,44.80
2018-12-18T13:45:31.604Z,44.60
2018-12-18T13:50:52.678Z,43.20
2018-12-18T13:53:27.207Z,43.20
2018-12-18T13:55:56.918Z,43.10
2018-12-18T13:58:27.471Z,43.00
2018-12-18T14:01:05.716Z,42.80
2018-12-18T14:03:42.838Z,42.90
2018-12-18T14:06:23.472Z,43.00
2018-12-18T14:08:54.189Z,44.90
2018-12-18T14:11:26.485Z,46.80
2018-12-18T14:14:01.307Z,47.40
2018-12-18T14:16:31.075Z,48.20
2018-12-18T14:19:01.166Z,48.60
2018-12-18T14:21:33.642Z,49.20
2018-12-18T14:24:03.980Z,48.80
2018-12-18T14:29:14.966Z,50.20
2018-12-18T14:31:44.467Z,50.40
2018-12-18T14:34:14.182Z,50.70
2018-12-18T14:37:06.667Z,50.90
2018-12-18T14:39:35.995Z,51.30
2018-12-18T14:42:05.344Z,51.20
2018-12-18T14:44:34.833Z,51.70
2018-12-18T14:47:04.448Z,51.80
2018-12-18T14:49:34.652Z,52.20
2018-12-18T14:52:04.034Z,51.80
2018-12-18T14:54:33.595Z,51.90
2018-12-18T14:57:03.192Z,52.40
2018-12-18T14:59:32.521Z,52.40
2018-12-18T15:02:01.958Z,52.30
2018-12-18T15:04:33.740Z,52.30
2018-12-18T15:07:03.342Z,51.80
2018-12-18T15:09:33.076Z,50.50
2018-12-18T15:12:02.921Z,50.10
2018-12-18T15:14:32.452Z,49.70
2018-12-18T15:17:02.755Z,49.60
2018-12-18T15:19:32.125Z,48.90
2018-12-18T15:22:02.231Z,48.80
2018-12-18T15:24:33.031Z,48.20
2018-12-18T15:27:03.571Z,48.60
2018-12-18T15:29:35.917Z,47.60
2018-12-18T15:32:05.317Z,47.00
2018-12-18T15:34:34.637Z,46.60
2018-12-18T15:37:09.559Z,46.20
2018-12-18T15:39:35.653Z,46.10
2018-12-18T15:42:05.228Z,45.80
2018-12-18T15:44:34.615Z,45.20
2018-12-18T15:47:03.976Z,45.30
2018-12-18T15:49:33.472Z,45.30
2018-12-18T15:52:02.834Z,45.30
2018-12-18T15:54:32.162Z,45.30
2018-12-18T15:57:01.520Z,44.60
2018-12-18T15:59:31.103Z,44.00
2018-12-18T16:02:00.733Z,43.60
2018-12-18T16:04:30.015Z,42.70
2018-12-18T16:06:59.437Z,42.70
2018-12-18T16:09:28.736Z,42.40
2018-12-18T16:11:58.120Z,42.20
2018-12-18T16:14:27.599Z,41.50
2018-12-18T16:16:56.900Z,40.70
2018-12-18T16:19:26.407Z,39.60
2018-12-18T16:21:56.159Z,38.60
2018-12-18T16:24:25.597Z,38.10
2018-12-18T16:26:55.123Z,37.30
2018-12-18T16:29:24.571Z,36.80
2018-12-18T16:31:55.208Z,36.50
2018-12-18T16:34:24.410Z,36.30
2018-12-18T16:36:53.709Z,36.00
2018-12-18T16:39:23.073Z,35.30
2018-12-18T16:41:52.428Z,34.90
2018-12-18T16:44:21.735Z,34.80
2018-12-18T16:46:51.297Z,35.10
2018-12-18T16:49:20.632Z,34.70
2018-12-18T16:51:50.057Z,34.70
2018-12-18T16:54:19.437Z,33.90
2018-12-18T16:56:48.966Z,33.40
2018-12-18T16:59:18.320Z,32.90
2018-12-18T17:01:48.761Z,32.60
2018-12-18T17:04:18.150Z,32.00
2018-12-18T17:06:47.569Z,32.00
2018-12-18T17:09:16.866Z,31.70
2018-12-18T17:11:46.199Z,31.30
2018-12-18T17:14:16.599Z,31.10
2018-12-18T17:16:45.871Z,30.90
2018-12-18T17:19:15.097Z,30.60
2018-12-18T17:21:44.440Z,30.30
2018-12-18T17:24:13.705Z,30.10
2018-12-18T17:26:43.026Z,29.80
2018-12-18T17:29:12.915Z,29.80
2018-12-18T17:31:42.282Z,29.70
2018-12-18T17:34:11.786Z,29.50
2018-12-18T17:36:41.178Z,29.50
2018-12-18T17:39:10.531Z,29.30
2018-12-18T17:41:39.830Z,29.20
2018-12-18T17:44:09.167Z,29.10
2018-12-18T17:46:38.642Z,29.10
2018-12-18T17:49:07.960Z,29.00
2018-12-18T17:51:37.316Z,29.00
2018-12-18T17:54:07.672Z,28.90
2018-12-18T17:56:37.007Z,28.80
2018-12-18T17:59:06.479Z,28.80
2018-12-18T18:01:35.883Z,28.80
2018-12-18T18:04:05.309Z,28.80
2018-12-18T18:06:34.994Z,29.00
2018-12-18T18:09:08.289Z,29.00
2018-12-18T18:11:37.796Z,28.90
2018-12-18T18:14:07.107Z,29.00
2018-12-18T18:16:36.570Z,29.20
2018-12-18T18:19:05.927Z,29.80
2018-12-18T18:21:35.462Z,29.60
2018-12-18T18:24:04.932Z,29.60
2018-12-18T18:26:34.509Z,29.60
2018-12-18T18:29:03.847Z,30.00
2018-12-18T18:31:33.250Z,30.40
2018-12-18T18:34:02.623Z,30.30
2018-12-18T18:36:31.964Z,30.00
2018-12-18T18:39:01.262Z,30.40
2018-12-18T18:41:32.674Z,30.80
2018-12-18T18:44:02.047Z,30.60
2018-12-18T18:46:31.728Z,30.50
2018-12-18T18:49:01.227Z,31.20
2018-12-18T18:51:30.568Z,31.80
2018-12-18T18:53:59.892Z,32.70
2018-12-18T18:56:29.347Z,33.90
2018-12-18T18:58:58.696Z,34.60
2018-12-18T19:01:28.048Z,35.40
2018-12-18T19:03:57.401Z,36.10
2018-12-18T19:06:27.075Z,36.60
2018-12-18T19:08:56.413Z,36.60
2018-12-18T19:11:25.752Z,36.60
2018-12-18T19:13:55.111Z,36.60
2018-12-18T19:16:24.519Z,36.50
2018-12-18T19:18:53.839Z,36.50
2018-12-18T19:21:23.161Z,36.40
2018-12-18T19:23:52.542Z,36.30
2018-12-18T19:26:21.962Z,36.20
2018-12-18T19:28:51.262Z,36.10
2018-12-18T19:31:20.578Z,36.00
2018-12-18T19:33:49.971Z,35.80
2018-12-18T19:36:19.244Z,35.80
2018-12-18T19:38:48.639Z,35.70
2018-12-18T19:41:18.080Z,35.70
2018-12-18T19:43:47.560Z,35.50
2018-12-18T19:46:16.931Z,35.40
2018-12-18T19:48:46.308Z,35.40
2018-12-18T19:51:15.590Z,35.20
2018-12-18T19:53:45.210Z,35.10
2018-12-18T19:56:14.455Z,35.10
2018-12-18T19:58:43.841Z,35.60
2018-12-18T20:01:13.104Z,34.60
2018-12-18T20:03:42.754Z,34.60
2018-12-18T20:06:12.172Z,34.60
2018-12-18T20:08:41.572Z,34.60
2018-12-18T20:11:10.977Z,34.60
2018-12-18T20:13:40.398Z,34.70
2018-12-18T20:16:09.788Z,34.60
2018-12-18T20:18:39.181Z,34.70
2018-12-18T20:21:08.416Z,34.60
2018-12-18T20:23:37.823Z,34.60
2018-12-18T20:26:09.207Z,34.60
2018-12-18T20:28:38.788Z,34.70
2018-12-18T20:31:08.085Z,34.60
2018-12-18T20:33:37.488Z,34.60
2018-12-18T20:36:06.767Z,34.60
2018-12-18T20:38:36.052Z,34.60
2018-12-18T20:41:05.314Z,34.40
2018-12-18T20:43:34.779Z,34.30
2018-12-18T20:46:04.222Z,34.40
2018-12-18T20:48:33.634Z,34.40
2018-12-18T20:51:02.959Z,34.10
2018-12-18T20:53:32.277Z,34.10
2018-12-18T20:56:01.653Z,34.10
2018-12-18T20:58:31.223Z,34.80
2018-12-18T21:01:00.599Z,34.00
2018-12-18T21:03:30.090Z,34.80
2018-12-18T21:05:59.506Z,33.90
2018-12-18T21:08:28.802Z,33.80
2018-12-18T21:10:58.084Z,33.90
2018-12-18T21:13:30.026Z,33.90
2018-12-18T21:15:59.373Z,33.90
2018-12-18T21:18:28.693Z,33.70
2018-12-18T21:20:59.039Z,33.70
2018-12-18T21:23:28.389Z,33.70
2018-12-18T21:25:57.782Z,33.70
2018-12-18T21:28:27.228Z,33.70
2018-12-18T21:30:56.650Z,33.60
2018-12-18T21:33:26.107Z,33.40
2018-12-18T21:35:55.377Z,33.40
2018-12-18T21:38:30.275Z,33.40
2018-12-18T21:40:56.227Z,33.40
2018-12-18T21:43:25.504Z,33.30
2018-12-18T21:45:54.868Z,33.30
2018-12-18T21:48:24.250Z,33.30
2018-12-18T21:50:53.558Z,33.30
2018-12-18T21:53:23.863Z,33.30
2018-12-18T21:55:53.177Z,33.30
2018-12-18T21:58:22.845Z,34.00
2018-12-18T22:00:52.215Z,33.30
2018-12-18T22:03:21.616Z,33.30
2018-12-18T22:05:51.155Z,33.30
2018-12-18T22:08:20.546Z,33.10
2018-12-18T22:10:49.961Z,33.00
2018-12-18T22:13:19.278Z,33.20
2018-12-18T22:15:48.739Z,33.20
2018-12-18T22:18:18.167Z,33.20
2018-12-18T22:20:47.536Z,33.10
2018-12-18T22:23:16.823Z,33.10
2018-12-18T22:25:46.218Z,33.10
2018-12-18T22:28:15.543Z,33.10
2018-12-18T22:30:44.861Z,33.00
2018-12-18T22:33:14.164Z,33.00
2018-12-18T22:35:43.585Z,33.10
2018-12-18T22:38:13.136Z,33.00
2018-12-18T22:40:42.467Z,33.00
2018-12-18T22:43:11.712Z,32.90
2018-12-18T22:45:40.953Z,33.00
2018-12-18T22:48:10.468Z,33.00
2018-12-18T22:50:39.820Z,32.90
2018-12-18T22:53:09.224Z,32.90
2018-12-18T22:55:44.681Z,32.90
2018-12-18T22:58:10.032Z,32.80
2018-12-18T23:00:44.839Z,32.80
2018-12-18T23:03:16.225Z,32.80
2018-12-18T23:05:45.936Z,32.70
2018-12-18T23:08:15.522Z,32.70
2018-12-18T23:10:45.020Z,32.70
2018-12-18T23:13:18.722Z,32.70
2018-12-18T23:15:48.286Z,32.70
2018-12-18T23:18:17.854Z,32.60
2018-12-18T23:20:47.252Z,32.70
2018-12-18T23:23:16.595Z,32.50
2018-12-18T23:25:45.992Z,32.50
2018-12-18T23:28:15.577Z,32.50
2018-12-18T23:30:44.916Z,32.60
2018-12-18T23:33:14.298Z,32.40
2018-12-18T23:35:43.768Z,32.50
2018-12-18T23:38:13.088Z,32.50
2018-12-18T23:40:42.571Z,32.50
2018-12-18T23:43:12.000Z,32.40
2018-12-18T23:45:41.488Z,32.40
2018-12-18T23:48:10.982Z,32.40
2018-12-18T23:50:40.409Z,32.40
2018-12-18T23:53:09.817Z,32.40
2018-12-18T23:55:39.179Z,32.40
2018-12-18T23:58:08.605Z,32.30
